Time;durP1;ratioP1;P1;durP2;ratioP2;P2;SDS_P1;SDS_P2;PMS_P1;PMS_P2;Temp;Humidity;BMP_temperature;BMP_pressure;BME280_temperature;BME280_humidity;BME280_pressure;Samples;Min_cycle;Max_cycle;Signal;HPM_P1;HPM_P2
2022/01/22 00:02:24;;;;;;;10.35;6.55;;;2.40;27.80;;;;;;5087882;28;20048;-65
2022/01/22 00:04:52;;;;;;;10.02;6.55;;;2.50;28.00;;;;;;5088656;28;20052;-65
2022/01/22 00:07:23;;;;;;;13.00;6.63;;;2.50;27.80;;;;;;5088153;28;20115;-65
2022/01/22 00:09:58;;;;;;;11.85;6.32;;;2.50;27.70;;;;;;5085844;28;20490;-63
2022/01/22 00:12:43;;;;;;;12.98;7.07;;;2.50;27.60;;;;;;5088872;28;20151;-64
2022/01/22 00:15:13;;;;;;;10.93;6.25;;;2.60;27.50;;;;;;5088184;28;20047;-64
2022/01/22 00:17:41;;;;;;;11.38;6.18;;;2.50;27.40;;;;;;5088609;28;20147;-65
2022/01/22 00:20:10;;;;;;;10.90;6.70;;;2.60;27.70;;;;;;5085927;28;20610;-64
2022/01/22 00:22:38;;;;;;;12.15;6.57;;;2.60;27.60;;;;;;5086016;28;20032;-65
2022/01/22 00:25:09;;;;;;;13.27;6.57;;;2.60;27.60;;;;;;5089582;28;20047;-66
2022/01/22 00:27:39;;;;;;;12.55;6.70;;;2.70;28.20;;;;;;5089048;28;20062;-62
2022/01/22 00:30:11;;;;;;;11.45;7.13;;;2.60;27.60;;;;;;5085387;28;20044;-63
2022/01/22 00:32:39;;;;;;;11.80;6.55;;;2.60;27.90;;;;;;5086884;28;20036;-64
2022/01/22 00:35:08;;;;;;;13.40;7.45;;;2.60;27.60;;;;;;5091057;28;20048;-63
2022/01/22 00:37:38;;;;;;;13.38;7.47;;;2.60;27.90;;;;;;5089751;28;20040;-64
2022/01/22 00:40:10;;;;;;;16.67;7.93;;;2.70;27.20;;;;;;5087182;28;20059;-65
2022/01/22 00:42:38;;;;;;;15.38;8.48;;;2.70;27.50;;;;;;5086245;28;20109;-64
2022/01/22 00:45:07;;;;;;;12.70;7.53;;;2.70;28.70;;;;;;5089043;28;20050;-65
2022/01/22 00:47:35;;;;;;;13.65;8.25;;;2.70;27.70;;;;;;5086251;28;20047;-64
2022/01/22 00:50:04;;;;;;;17.30;8.45;;;2.70;27.50;;;;;;5087717;28;20503;-65
2022/01/22 00:52:32;;;;;;;21.60;8.68;;;2.70;27.80;;;;;;5085122;28;20523;-65
2022/01/22 00:55:00;;;;;;;18.60;8.27;;;2.70;27.70;;;;;;5088899;28;20087;-65
2022/01/22 00:57:29;;;;;;;15.93;8.68;;;2.70;28.20;;;;;;5088759;28;20075;-65
2022/01/22 00:59:57;;;;;;;20.63;9.90;;;2.70;27.60;;;;;;5085019;28;20514;-65
2022/01/22 01:02:25;;;;;;;15.43;8.55;;;2.70;27.40;;;;;;5087568;28;20134;-65
2022/01/22 01:04:53;;;;;;;22.05;9.07;;;2.70;27.20;;;;;;5090364;28;20051;-65
2022/01/22 01:07:21;;;;;;;13.70;8.10;;;2.70;27.50;;;;;;5089072;28;20044;-65
2022/01/22 01:09:49;;;;;;;17.67;8.25;;;2.70;27.40;;;;;;5083343;28;20067;-64
2022/01/22 01:12:17;;;;;;;19.52;7.88;;;2.70;26.80;;;;;;5085302;28;20052;-64
2022/01/22 01:14:55;;;;;;;16.30;9.05;;;2.70;27.10;;;;;;5086823;28;20032;-64
2022/01/22 01:17:46;;;;;;;18.65;9.50;;;2.70;27.30;;;;;;5087216;28;20096;-64
2022/01/22 01:34:13;;;;;;;20.77;9.75;;;2.70;27.20;;;;;;5087077;28;20126;-63
2022/01/22 01:36:43;;;;;;;16.80;9.23;;;2.80;27.30;;;;;;5086475;28;20101;-63
2022/01/22 01:39:15;;;;;;;17.65;9.13;;;2.70;26.50;;;;;;5084345;28;20155;-63
2022/01/22 01:41:51;;;;;;;18.55;9.10;;;2.70;27.20;;;;;;5087245;28;20462;-63
2022/01/22 01:44:20;;;;;;;21.65;10.40;;;2.70;26.30;;;;;;5088409;28;20040;-63
2022/01/22 01:46:52;;;;;;;24.25;9.35;;;2.70;26.10;;;;;;5087381;28;20058;-63
2022/01/22 01:49:21;;;;;;;26.63;10.35;;;2.80;26.00;;;;;;5084872;28;20127;-65
2022/01/22 01:51:49;;;;;;;17.15;8.80;;;2.70;26.20;;;;;;5085675;28;20056;-64
2022/01/22 01:54:33;;;;;;;17.00;9.48;;;2.80;26.20;;;;;;5086346;28;20060;-64
2022/01/22 01:59:50;;;;;;;15.80;8.13;;;2.80;26.00;;;;;;5078768;28;20044;-62
2022/01/22 02:02:22;;;;;;;17.90;8.68;;;2.70;26.40;;;;;;5081771;28;20135;-63
2022/01/22 02:04:50;;;;;;;18.27;9.73;;;2.70;26.10;;;;;;5083664;28;20537;-63
2022/01/22 02:07:18;;;;;;;17.52;9.63;;;2.80;26.20;;;;;;5085204;28;20036;-63
2022/01/22 02:09:46;;;;;;;22.48;9.90;;;2.70;26.10;;;;;;5078300;28;20745;-63
2022/01/22 02:12:20;;;;;;;18.60;9.57;;;2.80;26.30;;;;;;5079591;28;20043;-63
2022/01/22 02:25:56;;;;;;;13.57;8.52;;;2.80;26.20;;;;;;5084597;28;20040;-64
2022/01/22 02:28:24;;;;;;;19.25;10.02;;;2.80;26.10;;;;;;5083823;28;20078;-63
2022/01/22 02:30:59;;;;;;;19.92;10.48;;;2.70;26.30;;;;;;5079556;28;20122;-63
2022/01/22 02:33:34;;;;;;;20.15;10.93;;;2.70;26.60;;;;;;5077542;28;20044;-64
2022/01/22 02:36:11;;;;;;;;;;;2.70;27.60;;;;;;5079955;28;20044;-64
2022/01/22 02:38:49;;;;;;;19.80;10.60;;;2.70;26.90;;;;;;5081839;28;20022;-64
2022/01/22 02:41:19;;;;;;;28.25;10.65;;;2.70;27.20;;;;;;5085440;28;20044;-63
2022/01/22 02:43:48;;;;;;;26.25;11.23;;;2.70;26.90;;;;;;5083637;28;20804;-63
2022/01/22 02:46:17;;;;;;;23.02;11.75;;;2.70;27.30;;;;;;5084949;28;20091;-63
2022/01/22 02:48:46;;;;;;;26.42;11.27;;;2.70;27.10;;;;;;5083287;28;20044;-63
2022/01/22 02:51:14;;;;;;;19.05;11.13;;;2.70;27.50;;;;;;5083887;28;20070;-63
2022/01/22 02:53:43;;;;;;;19.83;10.73;;;2.70;27.70;;;;;;5083890;28;20089;-63
2022/01/22 02:56:11;;;;;;;21.85;11.50;;;2.70;27.60;;;;;;5083724;28;20493;-63
2022/01/22 02:58:40;;;;;;;25.65;11.80;;;2.70;27.80;;;;;;5085693;28;20127;-63
2022/01/22 03:01:08;;;;;;;20.73;11.60;;;2.70;27.60;;;;;;5061237;28;20040;-62
2022/01/22 03:03:38;;;;;;;24.13;11.90;;;2.70;27.80;;;;;;5079890;28;20503;-63
2022/01/22 03:06:06;;;;;;;19.48;11.40;;;2.70;28.20;;;;;;5083369;28;20079;-63
2022/01/22 03:08:34;;;;;;;23.63;12.48;;;2.70;28.30;;;;;;5082462;28;20040;-63
2022/01/22 03:11:07;;;;;;;26.67;13.32;;;2.70;28.30;;;;;;5082519;28;20052;-64
2022/01/22 03:16:45;;;;;;;19.77;12.18;;;2.70;28.30;;;;;;5054459;28;20500;-63
2022/01/22 03:19:28;;;;;;;23.63;12.05;;;2.70;28.30;;;;;;5086560;28;20056;-64
2022/01/22 03:22:02;;;;;;;25.17;12.27;;;2.70;28.30;;;;;;5083761;28;20419;-63
2022/01/22 03:27:23;;;;;;;25.05;11.80;;;2.70;28.20;;;;;;5085957;28;20084;-63
2022/01/22 03:29:51;;;;;;;20.20;11.85;;;2.70;28.30;;;;;;5085986;28;20755;-64
2022/01/22 03:32:20;;;;;;;24.77;13.07;;;2.70;28.30;;;;;;5069666;28;20075;-63
2022/01/22 03:35:00;;;;;;;25.75;13.30;;;2.70;28.20;;;;;;5072639;28;20044;-63
2022/01/22 03:37:28;;;;;;;25.70;13.07;;;2.70;28.30;;;;;;5087207;28;20036;-63
2022/01/22 03:39:57;;;;;;;22.52;12.82;;;2.70;28.30;;;;;;5086238;28;20056;-63
2022/01/22 03:42:26;;;;;;;25.20;13.23;;;2.70;28.30;;;;;;5088640;28;20155;-62
2022/01/22 03:44:54;;;;;;;21.63;12.05;;;2.70;28.30;;;;;;5088841;28;20059;-63
2022/01/22 03:47:22;;;;;;;23.25;12.10;;;2.70;28.30;;;;;;5089261;28;20237;-64
2022/01/22 03:49:50;;;;;;;23.13;11.43;;;2.70;28.30;;;;;;5088001;28;20236;-63
2022/01/22 03:52:18;;;;;;;22.65;12.25;;;2.70;28.30;;;;;;5087890;28;20131;-64
2022/01/22 03:54:46;;;;;;;26.27;12.35;;;2.70;28.30;;;;;;5085176;28;20048;-63
2022/01/22 03:57:14;;;;;;;19.70;11.30;;;2.70;28.30;;;;;;5082455;28;20682;-65
2022/01/22 03:59:45;;;;;;;25.75;12.32;;;2.70;28.30;;;;;;5083310;28;20131;-64
2022/01/22 04:05:02;;;;;;;24.73;12.27;;;2.70;28.10;;;;;;5085782;28;20041;-63
2022/01/22 04:08:07;;;;;;;23.05;12.13;;;2.70;28.10;;;;;;5083532;28;20055;-63
2022/01/22 04:10:35;;;;;;;23.75;11.85;;;2.70;28.10;;;;;;5082680;28;20472;-63
2022/01/22 04:13:06;;;;;;;20.67;11.27;;;2.70;28.30;;;;;;5086848;28;20050;-62
2022/01/22 04:15:38;;;;;;;24.55;12.10;;;2.70;28.30;;;;;;5090764;28;20052;-63
2022/01/22 04:26:35;;;;;;;25.17;13.50;;;2.70;28.30;;;;;;5085010;28;20044;-63
2022/01/22 04:29:03;;;;;;;24.13;12.75;;;2.70;28.30;;;;;;5085310;28;20603;-64
2022/01/22 04:31:32;;;;;;;30.40;13.55;;;2.70;28.30;;;;;;5091601;28;20043;-63
2022/01/22 04:34:00;;;;;;;25.83;13.35;;;2.70;28.30;;;;;;5086774;28;20098;-63
2022/01/22 04:36:28;;;;;;;25.73;12.70;;;2.70;28.30;;;;;;5088979;28;20127;-63
2022/01/22 04:38:56;;;;;;;24.58;12.93;;;2.70;28.30;;;;;;5085051;28;20056;-63
2022/01/22 04:41:24;;;;;;;24.98;12.82;;;2.70;28.50;;;;;;5086575;28;20091;-63
2022/01/22 04:44:00;;;;;;;29.35;13.30;;;2.70;28.80;;;;;;5087452;28;20060;-64
2022/01/22 04:46:48;;;;;;;24.70;12.82;;;2.70;28.40;;;;;;5088330;28;20384;-64
2022/01/22 04:54:59;;;;;;;27.00;12.77;;;2.70;28.50;;;;;;5085869;28;20124;-63
2022/01/22 04:57:27;;;;;;;21.42;11.93;;;2.70;28.40;;;;;;5088902;28;20067;-63
2022/01/22 04:59:55;;;;;;;23.00;12.32;;;2.70;28.30;;;;;;5085570;28;20046;-63
2022/01/22 05:02:23;;;;;;;25.90;12.57;;;2.70;28.50;;;;;;5085895;28;20048;-63
2022/01/22 05:04:53;;;;;;;19.38;12.23;;;2.70;28.70;;;;;;5089740;28;20040;-63
2022/01/22 05:07:21;;;;;;;25.15;12.77;;;2.70;28.70;;;;;;5087796;28;20101;-64
2022/01/22 05:09:49;;;;;;;24.95;12.77;;;2.70;28.50;;;;;;5084356;28;20472;-63
2022/01/22 05:12:19;;;;;;;23.25;12.68;;;2.70;28.40;;;;;;5085541;28;20052;-63
2022/01/22 05:14:47;;;;;;;21.50;11.75;;;2.70;28.60;;;;;;5089148;28;20231;-64
2022/01/22 05:17:17;;;;;;;27.67;12.60;;;2.70;28.30;;;;;;5085074;28;20536;-63
2022/01/22 05:19:51;;;;;;;22.20;12.32;;;2.70;28.30;;;;;;5085364;28;20047;-63
2022/01/22 05:22:38;;;;;;;24.55;13.02;;;2.70;28.30;;;;;;5086017;28;20052;-63
2022/01/22 05:25:10;;;;;;;21.40;11.88;;;2.70;28.30;;;;;;5088388;28;20036;-64
2022/01/22 05:27:54;;;;;;;26.25;11.73;;;2.80;28.40;;;;;;5088659;28;20062;-63
2022/01/22 05:36:53;;;;;;;23.30;11.00;;;2.80;28.30;;;;;;5011287;28;20054;-63
2022/01/22 05:39:09;;;;;;;23.40;13.25;;;2.80;27.60;;;;;;5084657;28;20074;-63
2022/01/22 05:41:39;;;;;;;24.13;13.57;;;2.80;27.70;;;;;;5067991;28;20054;-63
2022/01/22 05:44:08;;;;;;;22.92;12.82;;;2.80;27.70;;;;;;5086675;28;20055;-63
2022/01/22 05:46:36;;;;;;;24.90;13.00;;;2.80;27.30;;;;;;5087870;28;20048;-64
2022/01/22 05:49:04;;;;;;;21.48;11.88;;;2.80;27.70;;;;;;5084601;28;20083;-65
2022/01/22 05:51:34;;;;;;;20.42;11.90;;;2.80;27.10;;;;;;5086762;28;20135;-65
2022/01/22 05:59:42;;;;;;;22.10;12.07;;;2.80;27.10;;;;;;5083804;28;20052;-64
2022/01/22 06:02:12;;;;;;;21.67;12.40;;;2.80;26.70;;;;;;5084574;28;20058;-65
2022/01/22 06:04:41;;;;;;;25.73;12.98;;;2.90;27.10;;;;;;5087931;28;20047;-64
2022/01/22 06:07:10;;;;;;;27.55;12.57;;;2.90;26.60;;;;;;5087920;28;20403;-64
2022/01/22 06:09:51;;;;;;;19.25;11.57;;;2.90;26.70;;;;;;5084005;28;20036;-64
2022/01/22 06:12:36;;;;;;;20.73;12.00;;;2.90;25.90;;;;;;5085318;28;20058;-64
2022/01/22 06:15:05;;;;;;;24.98;12.65;;;2.90;26.40;;;;;;5086212;28;20058;-63
2022/01/22 06:17:33;;;;;;;22.02;11.93;;;2.90;25.90;;;;;;5086660;28;20131;-63
2022/01/22 06:20:01;;;;;;;18.48;11.07;;;2.90;26.00;;;;;;5082299;28;20050;-64
2022/01/22 06:22:29;;;;;;;22.15;11.68;;;2.90;25.70;;;;;;5084244;28;20078;-64
2022/01/22 06:24:57;;;;;;;22.42;11.65;;;2.90;25.60;;;;;;5087170;28;20036;-63
2022/01/22 06:27:26;;;;;;;23.20;11.98;;;2.90;26.30;;;;;;5086944;28;20068;-64
2022/01/22 06:29:54;;;;;;;27.77;12.15;;;2.90;25.90;;;;;;5084202;28;20127;-64
2022/01/22 06:32:22;;;;;;;21.58;11.73;;;3.00;25.40;;;;;;5082963;28;20763;-64
2022/01/22 06:34:50;;;;;;;24.23;12.57;;;3.00;25.80;;;;;;5087730;28;20070;-64
2022/01/22 06:37:19;;;;;;;25.00;12.00;;;2.90;25.10;;;;;;5087343;28;20047;-65
2022/01/22 06:42:30;;;;;;;22.30;11.82;;;3.00;25.60;;;;;;5084896;28;20093;-63
2022/01/22 06:44:58;;;;;;;20.52;12.90;;;3.00;25.60;;;;;;5086982;28;20507;-63
2022/01/22 06:47:29;;;;;;;21.70;11.82;;;3.00;25.20;;;;;;5086216;28;20483;-63
2022/01/22 06:49:57;;;;;;;23.88;10.98;;;3.00;25.70;;;;;;5083443;28;20064;-63
2022/01/22 06:52:26;;;;;;;24.60;12.18;;;3.00;25.20;;;;;;5084995;28;20067;-63
2022/01/22 06:54:54;;;;;;;22.38;11.88;;;3.00;25.20;;;;;;5086470;28;20455;-64
2022/01/22 06:57:22;;;;;;;23.30;12.30;;;3.00;25.40;;;;;;5086255;28;20048;-64
2022/01/22 06:59:51;;;;;;;22.58;12.82;;;3.00;25.20;;;;;;5082813;28;20051;-64
2022/01/22 07:02:20;;;;;;;19.25;11.10;;;3.00;25.20;;;;;;5082048;28;20265;-64
2022/01/22 07:04:48;;;;;;;25.40;11.75;;;3.10;25.20;;;;;;5086603;28;20050;-64
2022/01/22 07:07:16;;;;;;;24.27;11.63;;;3.00;24.70;;;;;;5087687;28;20407;-63
2022/01/22 07:09:45;;;;;;;22.02;11.63;;;3.00;24.60;;;;;;5082239;28;20059;-64
2022/01/22 07:12:13;;;;;;;24.17;11.70;;;3.00;24.80;;;;;;5083075;28;20423;-63
2022/01/22 07:14:42;;;;;;;21.13;11.32;;;3.00;25.10;;;;;;5083301;28;20098;-63
2022/01/22 07:17:12;;;;;;;22.95;11.43;;;3.00;25.00;;;;;;5087629;28;20048;-64
2022/01/22 07:19:41;;;;;;;21.60;11.18;;;3.00;25.20;;;;;;5084377;28;20064;-63
2022/01/22 07:22:30;;;;;;;22.15;11.07;;;3.00;24.90;;;;;;5083247;28;21371;-64
2022/01/22 07:24:58;;;;;;;19.85;10.05;;;3.00;24.60;;;;;;5084138;28;20097;-64
2022/01/22 07:27:26;;;;;;;23.35;11.85;;;3.00;25.10;;;;;;5087087;28;20074;-64
2022/01/22 07:29:54;;;;;;;18.55;11.02;;;3.00;25.10;;;;;;5081820;28;20177;-64
2022/01/22 07:32:31;;;;;;;20.42;11.32;;;3.00;25.20;;;;;;5085554;28;20056;-65
2022/01/22 07:34:59;;;;;;;21.08;10.95;;;2.90;25.40;;;;;;5085051;28;20136;-65
2022/01/22 07:37:27;;;;;;;23.13;11.55;;;3.00;25.50;;;;;;5086611;28;20144;-63
2022/01/22 07:39:55;;;;;;;19.20;11.13;;;3.00;25.10;;;;;;5081755;28;20044;-62
2022/01/22 07:42:23;;;;;;;24.05;11.52;;;3.00;25.20;;;;;;5084421;28;20419;-62
2022/01/22 07:44:51;;;;;;;22.88;11.50;;;3.00;25.40;;;;;;5084577;28;20080;-63
2022/01/22 07:47:19;;;;;;;20.35;11.27;;;3.00;25.40;;;;;;5087430;28;20040;-64
2022/01/22 07:49:48;;;;;;;23.88;12.27;;;3.00;25.20;;;;;;5080489;28;20049;-64
2022/01/22 07:52:16;;;;;;;22.83;11.07;;;3.00;26.00;;;;;;5083984;28;20412;-64
2022/01/22 07:54:44;;;;;;;19.38;11.38;;;3.00;25.40;;;;;;5085040;28;20052;-63
2022/01/22 07:57:12;;;;;;;24.75;11.75;;;3.00;25.10;;;;;;5085301;28;20040;-64
2022/01/22 07:59:40;;;;;;;21.73;11.10;;;3.00;25.20;;;;;;5082635;28;20151;-64
2022/01/22 08:02:08;;;;;;;23.80;13.55;;;3.10;25.50;;;;;;5087378;28;20052;-64
2022/01/22 08:04:36;;;;;;;23.85;12.38;;;3.00;25.10;;;;;;5089746;28;20048;-63
2022/01/22 08:07:06;;;;;;;21.63;11.75;;;3.10;25.20;;;;;;5088879;28;20123;-63
2022/01/22 08:09:34;;;;;;;23.25;11.65;;;3.10;24.60;;;;;;5085427;28;20551;-63
2022/01/22 08:12:02;;;;;;;24.02;11.73;;;3.10;24.20;;;;;;5066735;28;20141;-64
2022/01/22 08:14:30;;;;;;;21.35;11.40;;;3.10;24.70;;;;;;5089358;28;20062;-64
2022/01/22 08:16:58;;;;;;;22.58;11.02;;;3.20;24.30;;;;;;5071169;28;20440;-64
2022/01/22 08:19:26;;;;;;;20.85;11.93;;;3.20;24.10;;;;;;5085249;28;20501;-64
2022/01/22 08:21:54;;;;;;;23.33;11.93;;;3.20;24.60;;;;;;5068875;28;20052;-64
2022/01/22 08:24:26;;;;;;;20.23;11.57;;;3.20;24.20;;;;;;5090538;28;20571;-64
2022/01/22 08:27:09;;;;;;;25.88;12.02;;;3.30;24.00;;;;;;5088698;28;20151;-63
2022/01/22 08:29:37;;;;;;;21.42;11.32;;;3.30;23.70;;;;;;5083055;28;20040;-64
2022/01/22 08:32:11;;;;;;;20.92;11.38;;;3.20;23.80;;;;;;5088645;28;20106;-64
2022/01/22 08:37:24;;;;;;;22.10;11.45;;;3.20;23.60;;;;;;5086805;28;20111;-63
2022/01/22 08:39:54;;;;;;;22.73;12.23;;;3.20;23.30;;;;;;5066244;28;20476;-63
2022/01/22 08:42:23;;;;;;;25.98;11.93;;;3.20;22.90;;;;;;5086921;28;20508;-63
2022/01/22 08:44:51;;;;;;;20.77;11.20;;;3.30;23.30;;;;;;5088888;28;20040;-64
2022/01/22 08:47:19;;;;;;;25.17;11.98;;;3.20;23.70;;;;;;5088099;28;20075;-64
2022/01/22 08:49:48;;;;;;;20.48;12.23;;;3.30;23.40;;;;;;5085431;28;20048;-64
2022/01/22 08:52:16;;;;;;;20.65;11.30;;;3.30;23.20;;;;;;5085844;28;20048;-64
2022/01/22 08:54:45;;;;;;;24.05;12.23;;;3.20;22.80;;;;;;5087475;28;20044;-63
2022/01/22 08:57:14;;;;;;;21.67;12.57;;;3.20;23.30;;;;;;5088995;28;20151;-63
2022/01/22 08:59:42;;;;;;;18.55;11.13;;;3.30;23.70;;;;;;5084006;28;20115;-64
2022/01/22 09:02:11;;;;;;;23.77;12.43;;;3.20;23.40;;;;;;5086241;28;20056;-63
2022/01/22 09:04:39;;;;;;;26.77;12.57;;;3.30;23.40;;;;;;5087851;28;20573;-63
2022/01/22 09:07:07;;;;;;;20.92;11.43;;;3.30;23.60;;;;;;5086828;28;20075;-64
2022/01/22 09:09:36;;;;;;;18.95;11.00;;;3.30;22.60;;;;;;5066616;28;20742;-64
2022/01/22 09:12:06;;;;;;;23.77;11.63;;;3.30;23.20;;;;;;5083873;28;20052;-64
2022/01/22 09:14:35;;;;;;;27.45;11.82;;;3.30;23.40;;;;;;5067105;28;20471;-64
2022/01/22 09:17:04;;;;;;;26.58;12.27;;;3.40;23.50;;;;;;5088723;28;20058;-64
2022/01/22 09:19:34;;;;;;;22.20;11.40;;;3.40;23.10;;;;;;5084127;28;20059;-64
2022/01/22 09:22:05;;;;;;;22.88;11.40;;;3.40;22.80;;;;;;5085223;28;20067;-64
2022/01/22 09:24:33;;;;;;;19.73;10.80;;;3.40;22.60;;;;;;5085379;28;20141;-64
2022/01/22 09:27:04;;;;;;;21.05;11.88;;;3.30;22.10;;;;;;5085917;28;20508;-64
2022/01/22 09:29:36;;;;;;;21.58;11.75;;;3.40;23.00;;;;;;5083890;28;20116;-64
2022/01/22 09:32:04;;;;;;;22.27;10.82;;;3.40;22.90;;;;;;5087061;28;20739;-63
2022/01/22 09:34:33;;;;;;;27.25;12.38;;;3.40;23.00;;;;;;5086711;28;20044;-66
2022/01/22 09:37:01;;;;;;;25.33;12.25;;;3.40;23.40;;;;;;5085947;28;20392;-65
2022/01/22 09:39:29;;;;;;;24.92;12.45;;;3.40;23.80;;;;;;5084743;28;20491;-64
2022/01/22 09:41:57;;;;;;;19.90;11.75;;;3.40;24.20;;;;;;5085548;28;20043;-65
2022/01/22 09:44:33;;;;;;;22.83;12.50;;;3.50;24.40;;;;;;5085208;28;20070;-63
2022/01/22 09:47:03;;;;;;;21.95;12.27;;;3.50;24.40;;;;;;5086564;28;20102;-63
2022/01/22 09:49:31;;;;;;;20.13;11.82;;;3.50;24.60;;;;;;5084340;28;20063;-64
2022/01/22 09:51:59;;;;;;;24.38;12.38;;;3.50;24.80;;;;;;5085742;28;20062;-64
2022/01/22 09:54:27;;;;;;;25.05;12.30;;;3.60;25.50;;;;;;5085402;28;20040;-64
2022/01/22 09:56:57;;;;;;;25.38;11.70;;;3.60;24.40;;;;;;5085987;28;20147;-64
2022/01/22 09:59:25;;;;;;;19.95;11.93;;;3.50;24.10;;;;;;5083527;28;20067;-62
2022/01/22 10:02:09;;;;;;;24.05;10.98;;;3.50;24.20;;;;;;5086117;28;20137;-63
2022/01/22 10:04:38;;;;;;;22.77;11.95;;;3.60;25.20;;;;;;5085297;28;20058;-64
2022/01/22 10:07:14;;;;;;;18.88;11.20;;;3.50;24.00;;;;;;5086313;28;20143;-63
2022/01/22 10:09:56;;;;;;;26.10;13.30;;;3.50;25.50;;;;;;5084445;28;20100;-64
2022/01/22 10:12:26;;;;;;;23.05;12.88;;;3.50;25.90;;;;;;5085260;28;20118;-63
2022/01/22 10:15:18;;;;;;;25.35;12.38;;;3.50;26.40;;;;;;5083684;28;20455;-65
2022/01/22 10:17:49;;;;;;;25.02;12.27;;;3.50;26.60;;;;;;5086367;28;20098;-63
2022/01/22 10:20:28;;;;;;;19.92;11.55;;;3.40;27.40;;;;;;5082405;28;20040;-64
2022/01/22 10:22:59;;;;;;;21.02;12.10;;;3.60;27.70;;;;;;5085648;28;20052;-64
2022/01/22 10:25:31;;;;;;;25.77;12.63;;;3.60;27.90;;;;;;5066831;28;20075;-63
2022/01/22 10:28:01;;;;;;;20.17;11.25;;;3.60;27.80;;;;;;5085556;28;20127;-64
2022/01/22 10:30:37;;;;;;;26.25;12.00;;;3.60;26.80;;;;;;5083172;28;20054;-63
2022/01/22 10:33:27;;;;;;;21.13;12.15;;;3.70;27.30;;;;;;5082569;28;20975;-63
2022/01/22 10:36:12;;;;;;;21.25;11.23;;;3.60;26.30;;;;;;5068034;28;20156;-64
2022/01/22 10:38:41;;;;;;;24.92;11.60;;;3.60;25.50;;;;;;5084704;28;20074;-64
2022/01/22 10:41:10;;;;;;;20.85;11.88;;;3.50;25.50;;;;;;5084363;28;20559;-64
2022/01/22 10:43:43;;;;;;;23.40;12.25;;;3.50;25.50;;;;;;5084649;28;20048;-64
2022/01/22 10:46:19;;;;;;;21.92;11.30;;;3.60;25.60;;;;;;5086771;28;20036;-63
2022/01/22 10:49:07;;;;;;;22.25;11.05;;;3.60;26.00;;;;;;5082837;28;20035;-63
2022/01/22 10:51:46;;;;;;;18.80;10.70;;;3.70;25.60;;;;;;5084973;28;20070;-64
2022/01/22 10:54:15;;;;;;;23.08;11.15;;;3.70;25.60;;;;;;5082772;28;20119;-64
2022/01/22 10:56:45;;;;;;;19.38;11.30;;;3.60;25.50;;;;;;5087000;28;20048;-63
2022/01/22 10:59:14;;;;;;;17.55;10.75;;;3.70;25.60;;;;;;5083410;28;20036;-63
2022/01/22 11:01:48;;;;;;;19.92;11.07;;;3.70;25.60;;;;;;5085196;28;20056;-63
2022/01/22 11:04:20;;;;;;;19.57;10.43;;;3.90;25.70;;;;;;5083013;28;20135;-65
2022/01/22 11:06:52;;;;;;;17.98;10.30;;;3.90;24.70;;;;;;5085103;28;20302;-64
2022/01/22 11:09:41;;;;;;;18.70;9.55;;;3.90;23.90;;;;;;5082836;28;20047;-63
2022/01/22 11:12:10;;;;;;;19.98;10.07;;;3.80;23.60;;;;;;5085064;28;20081;-63
2022/01/22 11:14:39;;;;;;;19.17;9.35;;;3.90;24.50;;;;;;5084393;28;20055;-64
2022/01/22 11:17:08;;;;;;;21.58;10.90;;;3.80;24.00;;;;;;5087149;28;20054;-64
2022/01/22 11:19:40;;;;;;;15.52;9.05;;;3.90;24.30;;;;;;5083367;28;20551;-63
2022/01/22 11:22:09;;;;;;;22.42;10.35;;;3.80;22.70;;;;;;5085555;28;20048;-63
2022/01/22 11:24:40;;;;;;;17.38;9.05;;;3.80;23.10;;;;;;5082985;28;20157;-64
2022/01/22 11:27:10;;;;;;;17.85;10.40;;;3.80;23.50;;;;;;5085020;28;20064;-62
2022/01/22 11:29:45;;;;;;;23.60;9.57;;;3.90;23.10;;;;;;5082939;28;20052;-63
2022/01/22 11:32:15;;;;;;;16.70;9.38;;;3.90;22.70;;;;;;5065347;28;20056;-63
2022/01/22 11:34:47;;;;;;;17.05;9.57;;;4.00;22.90;;;;;;5083328;28;20048;-63
2022/01/22 11:37:19;;;;;;;15.82;9.73;;;4.00;21.90;;;;;;5075273;28;20809;-64
2022/01/22 11:39:47;;;;;;;20.98;9.05;;;4.00;22.40;;;;;;5085565;28;20048;-63
2022/01/22 11:42:15;;;;;;;22.13;9.98;;;4.00;22.40;;;;;;5088246;28;20060;-63
2022/01/22 11:44:49;;;;;;;17.55;9.35;;;4.10;22.90;;;;;;5086936;28;20517;-64
2022/01/22 11:47:25;;;;;;;16.15;8.57;;;4.10;22.00;;;;;;5084430;28;20048;-64
2022/01/22 11:50:08;;;;;;;17.77;8.38;;;4.10;22.50;;;;;;5087229;28;20055;-64
2022/01/22 11:52:39;;;;;;;15.75;8.55;;;4.00;21.80;;;;;;5070389;28;20056;-64
2022/01/22 11:55:09;;;;;;;20.27;9.30;;;4.10;21.90;;;;;;5086929;28;20135;-63
2022/01/22 11:57:39;;;;;;;16.48;9.00;;;4.10;22.40;;;;;;5089339;28;20128;-63
2022/01/22 12:00:31;;;;;;;18.80;8.38;;;4.00;21.80;;;;;;5087348;28;20047;-64
2022/01/22 12:03:20;;;;;;;16.27;9.18;;;4.20;22.10;;;;;;5066549;28;20040;-64
2022/01/22 12:06:10;;;;;;;16.98;9.73;;;4.20;23.10;;;;;;5088561;28;20131;-64
2022/01/22 12:09:05;;;;;;;15.30;8.50;;;4.30;21.60;;;;;;5089367;28;20070;-63
2022/01/22 12:14:53;;;;;;;15.52;8.38;;;4.30;21.50;;;;;;5085189;28;20075;-63
2022/01/22 12:17:59;;;;;;;17.05;9.35;;;4.30;21.60;;;;;;5088788;28;20131;-65
2022/01/22 12:23:54;;;;;;;15.98;8.23;;;4.20;21.10;;;;;;5040719;28;20059;-63
2022/01/22 12:26:52;;;;;;;14.02;8.00;;;4.30;21.80;;;;;;5086455;28;20044;-63
2022/01/22 12:30:00;;;;;;;17.13;9.00;;;4.40;22.60;;;;;;5082755;28;20072;-63
2022/01/22 12:32:43;;;;;;;16.05;8.77;;;4.30;22.30;;;;;;5007205;28;20206;-63
2022/01/22 12:35:15;;;;;;;17.65;8.95;;;4.40;22.40;;;;;;5082039;28;20048;-63
2022/01/22 12:37:50;;;;;;;16.15;9.10;;;4.40;21.70;;;;;;5088350;28;20059;-63
2022/01/22 12:40:31;;;;;;;18.73;9.43;;;4.30;20.50;;;;;;5063096;28;20036;-63
2022/01/22 12:43:15;;;;;;;17.83;9.75;;;4.30;21.00;;;;;;5085689;28;20110;-64
2022/01/22 12:45:45;;;;;;;22.23;9.23;;;4.40;20.80;;;;;;5068922;28;20056;-62
2022/01/22 12:48:15;;;;;;;15.65;9.10;;;4.30;20.90;;;;;;5084904;28;20055;-64
2022/01/22 12:50:43;;;;;;;17.00;9.45;;;4.20;22.20;;;;;;5084479;28;20496;-65
2022/01/22 12:53:18;;;;;;;16.05;9.38;;;4.20;21.00;;;;;;5087229;28;20059;-64
2022/01/22 12:56:13;;;;;;;20.80;10.48;;;4.30;22.30;;;;;;5089116;28;20086;-64
2022/01/22 12:58:42;;;;;;;17.52;8.95;;;4.30;22.60;;;;;;5089032;28;20546;-63
2022/01/22 13:01:14;;;;;;;17.52;8.65;;;4.30;22.40;;;;;;5082969;28;20079;-64
2022/01/22 13:03:46;;;;;;;16.73;9.70;;;4.30;22.30;;;;;;5083829;28;20048;-65
2022/01/22 13:06:17;;;;;;;23.00;10.40;;;4.30;22.00;;;;;;5066821;28;20139;-64
2022/01/22 13:08:45;;;;;;;20.73;9.73;;;4.20;22.50;;;;;;5061740;28;20068;-64
2022/01/22 13:11:18;;;;;;;16.02;9.20;;;4.20;22.50;;;;;;5081072;28;20076;-64
2022/01/22 13:13:49;;;;;;;17.65;9.88;;;4.20;22.50;;;;;;5080522;28;20047;-64
2022/01/22 13:16:17;;;;;;;18.98;9.68;;;4.20;23.30;;;;;;5063744;28;20052;-64
2022/01/22 13:18:51;;;;;;;15.73;9.70;;;4.10;22.50;;;;;;5080582;28;20052;-63
2022/01/22 13:21:21;;;;;;;19.48;10.52;;;4.20;23.40;;;;;;5081900;28;20109;-63
2022/01/22 13:24:04;;;;;;;24.40;11.35;;;4.20;23.30;;;;;;5068032;28;20107;-64
2022/01/22 13:26:43;;;;;;;18.50;10.52;;;4.30;22.60;;;;;;5086943;28;20044;-63
2022/01/22 13:29:19;;;;;;;17.30;10.23;;;4.30;22.60;;;;;;5066623;28;20078;-64
2022/01/22 13:32:03;;;;;;;17.20;10.88;;;4.30;22.00;;;;;;5082258;28;20054;-64
2022/01/22 13:34:41;;;;;;;17.92;11.25;;;4.20;21.50;;;;;;5081907;28;20147;-64
2022/01/22 13:40:14;;;;;;;20.48;10.38;;;4.20;21.80;;;;;;5056169;28;20044;-63
2022/01/22 13:48:26;;;;;;;18.55;10.50;;;4.10;21.50;;;;;;5062890;28;20036;-64
2022/01/22 13:50:55;;;;;;;21.02;10.45;;;4.20;22.60;;;;;;5079291;28;20579;-62
2022/01/22 13:53:25;;;;;;;18.15;10.43;;;4.20;22.40;;;;;;5077873;28;20044;-63
2022/01/22 13:55:58;;;;;;;27.60;11.23;;;4.20;21.70;;;;;;5050360;28;20047;-64
2022/01/22 13:58:29;;;;;;;23.13;10.55;;;4.10;22.10;;;;;;5081059;28;20051;-64
2022/01/22 14:01:04;;;;;;;19.13;10.45;;;4.10;22.40;;;;;;5060859;28;20434;-63
2022/01/22 14:04:06;;;;;;;23.23;10.73;;;4.10;22.10;;;;;;5078760;28;20040;-63
2022/01/22 14:06:35;;;;;;;23.20;11.15;;;4.10;22.50;;;;;;5082373;28;20150;-63
2022/01/22 14:09:13;;;;;;;16.77;10.38;;;4.10;22.50;;;;;;5063321;28;20176;-64
2022/01/22 14:12:05;;;;;;;22.50;11.00;;;4.10;22.30;;;;;;5085126;28;20119;-64
2022/01/22 14:14:59;;;;;;;21.13;10.98;;;4.10;22.50;;;;;;5081092;28;20123;-63
2022/01/22 14:17:36;;;;;;;25.20;11.23;;;4.00;22.40;;;;;;5083157;28;20055;-63
2022/01/22 14:20:08;;;;;;;22.65;12.32;;;4.10;22.40;;;;;;5082568;28;20504;-63
2022/01/22 14:23:01;;;;;;;17.30;10.65;;;4.10;22.90;;;;;;5064853;28;20048;-63
2022/01/22 14:25:30;;;;;;;23.83;12.82;;;4.10;22.50;;;;;;5084270;28;20043;-63
2022/01/22 14:28:00;;;;;;;23.67;12.32;;;4.10;22.60;;;;;;5083054;28;20052;-64
2022/01/22 14:30:36;;;;;;;24.52;12.88;;;4.10;23.30;;;;;;5046273;28;20048;-65